createdAt,value
2022-08-21T00:00:25.192Z,97583.34
2022-08-21T00:01:30.192Z,97572.97
2022-08-21T00:02:33.174Z,97576.34
2022-08-21T00:03:36.319Z,97572.22
2022-08-21T00:04:39.361Z,97580.34
2022-08-21T00:05:57.653Z,97582.19
2022-08-21T00:07:00.572Z,97575.78
2022-08-21T00:08:04.572Z,97582.63
2022-08-21T00:09:08.959Z,97573.34
2022-08-21T00:10:13.392Z,97584.66
2022-08-21T00:11:16.354Z,97587.56
2022-08-21T00:12:19.507Z,97566.09
2022-08-21T00:13:23.170Z,97574.88
2022-08-21T00:14:33.697Z,97579.94
2022-08-21T00:15:38.823Z,97572.69
2022-08-21T00:16:42.120Z,97571.56
2022-08-21T00:17:49.920Z,97565.75
2022-08-21T00:18:52.910Z,97569.06
2022-08-21T00:19:55.938Z,97572.13
2022-08-21T00:20:58.968Z,97564.34
2022-08-21T00:22:02.298Z,97572.63
2022-08-21T00:23:06.151Z,97568.94
2022-08-21T00:24:09.330Z,97565.25
2022-08-21T00:25:13.943Z,97570.81
2022-08-21T00:26:17.135Z,97571.78
2022-08-21T00:27:20.134Z,97565.91
2022-08-21T00:28:23.277Z,97565.78
2022-08-21T00:29:26.228Z,97563.06
2022-08-21T00:30:29.912Z,97560.03
2022-08-21T00:31:32.883Z,97569.78
2022-08-21T00:32:39.409Z,97568.56
2022-08-21T00:33:43.829Z,97566.09
2022-08-21T00:34:46.812Z,97561.44
2022-08-21T00:35:49.767Z,97566.91
2022-08-21T00:36:52.803Z,97562.37
2022-08-21T00:37:56.339Z,97559.69
2022-08-21T00:38:59.349Z,97563.66
2022-08-21T00:40:02.629Z,97570.91
2022-08-21T00:41:37.274Z,97570.50
2022-08-21T00:42:32.017Z,97569.66
2022-08-21T00:43:38.300Z,97566.44
2022-08-21T00:44:41.471Z,97578.50
2022-08-21T00:45:45.247Z,97573.88
2022-08-21T00:46:48.812Z,97571.31
2022-08-21T00:47:53.622Z,97574.09
2022-08-21T00:48:58.872Z,97574.81
2022-08-21T00:50:02.536Z,97574.06
2022-08-21T00:51:08.467Z,97574.00
2022-08-21T00:52:18.736Z,97576.44
2022-08-21T00:53:21.731Z,97569.91
2022-08-21T00:54:26.964Z,97567.84
2022-08-21T00:55:32.673Z,97572.44
2022-08-21T00:56:36.362Z,97560.72
2022-08-21T00:57:53.818Z,97568.31
2022-08-21T00:59:00.093Z,97566.38
2022-08-21T01:00:07.844Z,97566.19
2022-08-21T01:01:11.167Z,97556.28
2022-08-21T01:02:14.995Z,97556.28
2022-08-21T01:03:23.870Z,97559.63
2022-08-21T01:04:27.261Z,97561.63
2022-08-21T01:05:30.131Z,97552.38
2022-08-21T01:06:33.692Z,97563.00
2022-08-21T01:07:37.611Z,97563.22
2022-08-21T01:08:40.775Z,97559.84
2022-08-21T01:09:50.422Z,97556.66
2022-08-21T01:10:55.053Z,97563.31
2022-08-21T01:11:58.218Z,97557.53
2022-08-21T01:13:01.324Z,97563.84
2022-08-21T01:14:04.398Z,97564.13
2022-08-21T01:15:08.951Z,97560.09
2022-08-21T01:16:12.772Z,97558.56
2022-08-21T01:17:17.279Z,97560.16
2022-08-21T01:18:21.984Z,97565.19
2022-08-21T01:19:26.160Z,97566.38
2022-08-21T01:20:32.556Z,97558.34
2022-08-21T01:21:35.944Z,97557.50
2022-08-21T01:22:39.775Z,97551.31
2022-08-21T01:23:47.646Z,97554.59
2022-08-21T01:24:51.409Z,97549.84
2022-08-21T01:25:54.495Z,97550.28
2022-08-21T01:26:57.860Z,97551.81
2022-08-21T01:28:08.064Z,97547.75
2022-08-21T01:29:24.176Z,97554.87
2022-08-21T01:30:28.593Z,97550.78
2022-08-21T01:31:34.427Z,97552.41
2022-08-21T01:32:37.648Z,97550.31
2022-08-21T01:33:41.184Z,97554.75
2022-08-21T01:34:47.279Z,97558.22
2022-08-21T01:35:50.488Z,97562.69
2022-08-21T01:36:53.571Z,97553.19
2022-08-21T01:37:56.554Z,97558.78
2022-08-21T01:38:59.782Z,97554.75
2022-08-21T01:40:03.185Z,97554.09
2022-08-21T01:41:06.320Z,97553.44
2022-08-21T01:42:09.954Z,97559.78
2022-08-21T01:43:13.065Z,97560.81
2022-08-21T01:44:16.022Z,97553.50
2022-08-21T01:45:19.214Z,97554.78
2022-08-21T01:46:25.206Z,97561.87
2022-08-21T01:47:28.388Z,97554.66
2022-08-21T01:48:32.321Z,97553.09
2022-08-21T01:49:36.531Z,97544.03
2022-08-21T01:50:39.995Z,97546.56
2022-08-21T01:51:43.534Z,97546.63
2022-08-21T01:52:46.881Z,97544.16
2022-08-21T01:53:49.911Z,97551.31
2022-08-21T01:54:55.181Z,97552.69
2022-08-21T01:55:58.776Z,97547.78
2022-08-21T01:57:06.165Z,97548.31
2022-08-21T01:58:09.190Z,97543.88
2022-08-21T01:59:13.576Z,97551.62
2022-08-21T02:00:19.945Z,97545.53
2022-08-21T02:01:23.035Z,97545.59
2022-08-21T02:02:26.307Z,97539.28
2022-08-21T02:03:35.883Z,97542.50
2022-08-21T02:04:39.388Z,97546.94
2022-08-21T02:05:42.567Z,97538.09
2022-08-21T02:06:45.658Z,97539.47
2022-08-21T02:07:55.145Z,97538.09
2022-08-21T02:08:58.154Z,97540.69
2022-08-21T02:10:01.722Z,97547.84
2022-08-21T02:11:05.398Z,97542.62
2022-08-21T02:12:08.461Z,97534.94
2022-08-21T02:13:13.341Z,97546.50
2022-08-21T02:14:27.199Z,97546.34
2022-08-21T02:15:36.320Z,97551.22
2022-08-21T02:16:41.063Z,97539.97
2022-08-21T02:17:47.508Z,97537.19
2022-08-21T02:18:50.497Z,97545.41
2022-08-21T02:19:53.659Z,97540.44
2022-08-21T02:20:56.953Z,97539.31
2022-08-21T02:22:00.047Z,97540.31
2022-08-21T02:23:04.175Z,97535.06
2022-08-21T02:24:07.541Z,97542.50
2022-08-21T02:25:10.783Z,97533.44
2022-08-21T02:26:14.210Z,97533.78
2022-08-21T02:27:17.213Z,97535.41
2022-08-21T02:28:28.453Z,97533.78
2022-08-21T02:29:31.496Z,97540.81
2022-08-21T02:30:39.302Z,97546.31
2022-08-21T02:31:42.345Z,97539.66
2022-08-21T02:32:45.260Z,97542.19
2022-08-21T02:33:48.581Z,97542.69
2022-08-21T02:34:51.519Z,97545.06
2022-08-21T02:35:56.158Z,97541.78
2022-08-21T02:36:59.825Z,97543.47
2022-08-21T02:38:07.005Z,97539.66
2022-08-21T02:39:16.082Z,97533.59
2022-08-21T02:40:33.828Z,97543.31
2022-08-21T02:41:36.750Z,97538.63
2022-08-21T02:42:41.237Z,97536.16
2022-08-21T02:43:44.335Z,97539.28
2022-08-21T02:44:47.363Z,97530.66
2022-08-21T02:45:51.694Z,97528.69
2022-08-21T02:46:54.881Z,97529.34
2022-08-21T02:48:00.599Z,97527.47
2022-08-21T02:49:04.544Z,97533.59
2022-08-21T02:50:08.955Z,97529.78
2022-08-21T02:51:19.550Z,97536.69
2022-08-21T02:52:23.098Z,97530.16
2022-08-21T02:53:27.639Z,97530.50
2022-08-21T02:54:30.603Z,97526.06
2022-08-21T02:55:36.246Z,97532.22
2022-08-21T02:56:39.279Z,97534.09
2022-08-21T02:57:42.339Z,97532.81
2022-08-21T02:58:50.450Z,97528.94
2022-08-21T02:59:53.414Z,97530.75
2022-08-21T03:00:56.470Z,97528.34
2022-08-21T03:01:59.429Z,97531.06
2022-08-21T03:03:02.966Z,97525.13
2022-08-21T03:04:05.942Z,97521.97
2022-08-21T03:05:11.272Z,97530.47
2022-08-21T03:06:16.569Z,97525.19
2022-08-21T03:07:19.616Z,97533.59
2022-08-21T03:08:26.519Z,97532.75
2022-08-21T03:09:30.807Z,97532.94
2022-08-21T03:10:34.960Z,97535.00
2022-08-21T03:11:38.147Z,97534.28
2022-08-21T03:12:41.376Z,97534.81
2022-08-21T03:13:45.028Z,97530.75
2022-08-21T03:14:48.103Z,97532.94
2022-08-21T03:15:51.538Z,97533.53
2022-08-21T03:16:54.593Z,97535.00
2022-08-21T03:17:57.742Z,97532.37
2022-08-21T03:19:01.046Z,97533.22
2022-08-21T03:20:06.914Z,97531.81
2022-08-21T03:21:10.119Z,97526.44
2022-08-21T03:22:13.053Z,97525.13
2022-08-21T03:23:19.131Z,97525.56
2022-08-21T03:24:22.765Z,97530.25
2022-08-21T03:25:39.962Z,97530.16
2022-08-21T03:26:44.088Z,97522.78
2022-08-21T03:27:50.386Z,97536.41
2022-08-21T03:28:57.256Z,97536.38
2022-08-21T03:30:04.180Z,97526.16
2022-08-21T03:31:07.478Z,97531.78
2022-08-21T03:32:10.577Z,97531.28
2022-08-21T03:34:22.360Z,97532.16
2022-08-21T03:35:26.243Z,97533.00
2022-08-21T03:36:29.159Z,97531.97
2022-08-21T03:37:33.507Z,97533.03
2022-08-21T03:38:38.397Z,97536.63
2022-08-21T03:39:42.950Z,97540.44
2022-08-21T03:40:46.415Z,97532.22
2022-08-21T03:41:49.312Z,97534.34
2022-08-21T03:42:52.427Z,97529.91
2022-08-21T03:43:55.355Z,97537.00
2022-08-21T03:44:58.365Z,97543.44
2022-08-21T03:46:06.140Z,97526.59
2022-08-21T03:47:10.810Z,97535.62
2022-08-21T03:48:14.142Z,97539.19
2022-08-21T03:49:17.246Z,97536.53
2022-08-21T03:50:20.589Z,97530.81
2022-08-21T03:51:25.172Z,97535.00
2022-08-21T03:52:28.097Z,97539.13
2022-08-21T03:53:31.589Z,97533.97
2022-08-21T03:54:34.535Z,97543.47
2022-08-21T03:55:37.433Z,97543.84
2022-08-21T03:56:41.023Z,97538.47
2022-08-21T03:57:43.952Z,97538.87
2022-08-21T03:58:46.904Z,97541.66
2022-08-21T03:59:49.859Z,97544.13
2022-08-21T04:00:57.734Z,97547.75
2022-08-21T04:02:03.051Z,97542.94
2022-08-21T04:03:06.191Z,97550.25
2022-08-21T04:04:09.270Z,97546.09
2022-08-21T04:05:14.283Z,97547.66
2022-08-21T04:06:17.400Z,97542.50
2022-08-21T04:07:20.552Z,97546.81
2022-08-21T04:08:23.683Z,97549.59
2022-08-21T04:09:29.344Z,97552.31
2022-08-21T04:10:35.793Z,97556.03
2022-08-21T04:11:38.907Z,97558.19
2022-08-21T04:12:41.914Z,97554.19
2022-08-21T04:13:44.921Z,97557.75
2022-08-21T04:14:48.023Z,97556.97
2022-08-21T04:15:50.957Z,97550.94
2022-08-21T04:16:54.042Z,97552.88
2022-08-21T04:17:57.135Z,97551.03
2022-08-21T04:19:00.224Z,97556.81
2022-08-21T04:20:03.215Z,97557.91
2022-08-21T04:21:08.847Z,97554.84
2022-08-21T04:22:13.733Z,97555.47
2022-08-21T04:23:23.873Z,97555.56
2022-08-21T04:24:27.750Z,97553.53
2022-08-21T04:25:33.090Z,97561.00
2022-08-21T04:26:37.056Z,97561.19
2022-08-21T04:27:41.583Z,97559.78
2022-08-21T04:28:44.968Z,97561.06
2022-08-21T04:29:48.260Z,97563.13
2022-08-21T04:30:53.214Z,97562.56
2022-08-21T04:31:56.393Z,97561.97
2022-08-21T04:33:00.053Z,97566.19
2022-08-21T04:34:03.520Z,97559.38
2022-08-21T04:35:11.256Z,97569.00
2022-08-21T04:36:14.243Z,97558.34
2022-08-21T04:37:17.338Z,97562.44
2022-08-21T04:38:20.731Z,97571.13
2022-08-21T04:39:25.186Z,97567.31
2022-08-21T04:40:32.994Z,97569.66
2022-08-21T04:41:37.157Z,97569.41
2022-08-21T04:42:46.993Z,97569.28
2022-08-21T04:43:50.580Z,97564.84
2022-08-21T04:44:53.860Z,97574.25
2022-08-21T04:45:56.765Z,97565.16
2022-08-21T04:47:03.308Z,97568.78
2022-08-21T04:48:13.946Z,97564.44
2022-08-21T04:49:17.267Z,97571.03
2022-08-21T04:50:23.131Z,97571.09
2022-08-21T04:51:31.403Z,97571.09
2022-08-21T04:52:34.472Z,97575.34
2022-08-21T04:53:42.848Z,97579.28
2022-08-21T04:54:50.185Z,97582.19
2022-08-21T04:55:58.660Z,97575.09
2022-08-21T04:57:06.643Z,97577.34
2022-08-21T04:58:12.948Z,97583.75
2022-08-21T04:59:29.627Z,97578.97
2022-08-21T05:00:32.525Z,97583.03
2022-08-21T05:01:37.220Z,97583.88
2022-08-21T05:02:41.715Z,97578.34
2022-08-21T05:03:46.268Z,97582.38
2022-08-21T05:04:55.770Z,97574.38
2022-08-21T05:05:59.878Z,97574.72
2022-08-21T05:07:05.623Z,97576.38
2022-08-21T05:08:13.664Z,97580.59
2022-08-21T05:09:19.627Z,97579.47
2022-08-21T05:10:22.981Z,97576.66
2022-08-21T05:11:26.179Z,97578.34
2022-08-21T05:12:29.365Z,97582.00
2022-08-21T05:13:33.030Z,97577.09
2022-08-21T05:14:36.443Z,97575.81
2022-08-21T05:15:40.763Z,97577.50
2022-08-21T05:16:45.449Z,97583.88
2022-08-21T05:17:53.675Z,97580.78
2022-08-21T05:19:04.568Z,97582.91
2022-08-21T05:20:08.078Z,97582.72
2022-08-21T05:21:11.234Z,97589.75
2022-08-21T05:22:21.954Z,97585.09
2022-08-21T05:23:28.214Z,97584.97
2022-08-21T05:24:31.136Z,97589.50
2022-08-21T05:25:34.031Z,97587.63
2022-08-21T05:26:45.433Z,97591.63
2022-08-21T05:27:50.120Z,97586.72
2022-08-21T05:28:55.448Z,97585.31
2022-08-21T05:30:00.643Z,97589.56
2022-08-21T05:31:03.535Z,97591.06
2022-08-21T05:32:11.958Z,97592.22
2022-08-21T05:33:15.003Z,97592.66
2022-08-21T05:34:24.472Z,97594.47
2022-08-21T05:35:28.499Z,97589.75
2022-08-21T05:36:32.233Z,97590.53
2022-08-21T05:37:35.425Z,97588.62
2022-08-21T05:38:38.474Z,97592.78
2022-08-21T05:40:09.595Z,97589.88
2022-08-21T05:41:06.221Z,97592.16
2022-08-21T05:42:09.246Z,97584.41
2022-08-21T05:43:12.299Z,97586.44
2022-08-21T05:44:15.396Z,97584.47
2022-08-21T05:45:18.476Z,97583.16
2022-08-21T05:46:42.103Z,97584.50
2022-08-21T05:47:44.960Z,97584.13
2022-08-21T05:48:48.067Z,97585.44
2022-08-21T05:49:50.927Z,97581.31
2022-08-21T05:50:55.074Z,97586.84
2022-08-21T05:51:58.182Z,97586.16
2022-08-21T05:53:07.017Z,97582.25
2022-08-21T05:54:10.564Z,97589.44
2022-08-21T05:55:13.650Z,97590.41
2022-08-21T05:56:16.828Z,97592.78
2022-08-21T05:57:19.852Z,97587.47
2022-08-21T05:58:24.141Z,97587.53
2022-08-21T05:59:28.853Z,97586.13
2022-08-21T06:00:33.429Z,97586.13
2022-08-21T06:01:37.111Z,97579.97
2022-08-21T06:02:41.177Z,97580.13
2022-08-21T06:03:49.465Z,97584.37
2022-08-21T06:04:52.356Z,97580.25
2022-08-21T06:05:56.885Z,97582.53
2022-08-21T06:06:59.868Z,97578.91
2022-08-21T06:08:03.328Z,97582.09
2022-08-21T06:09:07.240Z,97585.19
2022-08-21T06:10:10.732Z,97577.37
2022-08-21T06:11:17.453Z,97576.16
2022-08-21T06:12:20.315Z,97581.12
2022-08-21T06:13:24.304Z,97578.50
2022-08-21T06:14:27.203Z,97580.50
2022-08-21T06:15:31.427Z,97577.72
2022-08-21T06:16:34.453Z,97576.34
2022-08-21T06:17:38.425Z,97569.84
2022-08-21T06:18:41.916Z,97575.75
2022-08-21T06:19:46.402Z,97576.59
2022-08-21T06:20:49.408Z,97574.59
2022-08-21T06:21:52.415Z,97580.56
2022-08-21T06:22:55.597Z,97580.62
2022-08-21T06:23:58.923Z,97589.25
2022-08-21T06:25:01.783Z,97586.53
2022-08-21T06:26:06.712Z,97585.94
2022-08-21T06:27:09.633Z,97592.09
2022-08-21T06:28:13.798Z,97593.66
2022-08-21T06:29:21.102Z,97589.78
2022-08-21T06:30:24.128Z,97596.94
2022-08-21T06:31:28.846Z,97590.63
2022-08-21T06:32:32.196Z,97584.22
2022-08-21T06:33:35.155Z,97589.62
2022-08-21T06:34:41.924Z,97586.09
2022-08-21T06:35:44.875Z,97588.88
2022-08-21T06:36:47.867Z,97583.00
2022-08-21T06:37:50.735Z,97576.19
2022-08-21T06:38:53.593Z,97582.41
2022-08-21T06:39:56.670Z,97582.72
2022-08-21T06:41:01.841Z,97581.25
2022-08-21T06:42:10.193Z,97581.59
2022-08-21T06:43:17.435Z,97585.78
2022-08-21T06:44:20.266Z,97584.22
2022-08-21T06:45:23.735Z,97585.53
2022-08-21T06:46:29.539Z,97585.91
2022-08-21T06:47:32.608Z,97588.22
2022-08-21T06:48:35.644Z,97584.72
2022-08-21T06:49:38.907Z,97584.37
2022-08-21T06:50:42.455Z,97591.72
2022-08-21T06:51:45.386Z,97583.66
2022-08-21T06:52:48.409Z,97599.81
2022-08-21T06:53:51.300Z,97593.69
2022-08-21T06:54:54.184Z,97602.94
2022-08-21T06:55:57.092Z,97592.09
2022-08-21T06:56:59.972Z,97600.84
2022-08-21T06:58:04.306Z,97598.94
2022-08-21T06:59:07.465Z,97596.47
2022-08-21T07:00:11.350Z,97594.44
2022-08-21T07:01:14.465Z,97597.56
2022-08-21T07:02:17.667Z,97592.91
2022-08-21T07:03:23.057Z,97597.12
2022-08-21T07:04:26.356Z,97596.50
2022-08-21T07:05:31.201Z,97598.81
2022-08-21T07:06:35.106Z,97592.34
2022-08-21T07:07:38.281Z,97587.97
2022-08-21T07:08:41.417Z,97589.69
2022-08-21T07:09:44.503Z,97589.38
2022-08-21T07:10:49.469Z,97588.75
2022-08-21T07:11:57.271Z,97595.03
2022-08-21T07:13:01.261Z,97591.87
2022-08-21T07:14:05.611Z,97601.09
2022-08-21T07:15:08.934Z,97590.06
2022-08-21T07:16:12.100Z,97589.09
2022-08-21T07:17:15.018Z,97591.44
2022-08-21T07:18:18.595Z,97602.59
2022-08-21T07:19:21.943Z,97597.00
2022-08-21T07:20:24.985Z,97595.59
2022-08-21T07:21:27.905Z,97589.88
2022-08-21T07:23:43.506Z,97600.63
2022-08-21T07:24:46.443Z,97595.66
2022-08-21T07:25:49.499Z,97594.03
2022-08-21T07:26:52.915Z,97585.78
2022-08-21T07:27:56.574Z,97593.00
2022-08-21T07:28:59.535Z,97584.19
2022-08-21T07:30:02.589Z,97586.00
2022-08-21T07:31:06.343Z,97584.72
2022-08-21T07:32:09.235Z,97597.34
2022-08-21T07:33:12.900Z,97597.78
2022-08-21T07:34:16.066Z,97591.13
2022-08-21T07:35:20.795Z,97591.59
2022-08-21T07:36:24.090Z,97586.75
2022-08-21T07:37:27.207Z,97590.25
2022-08-21T07:38:30.231Z,97596.09
2022-08-21T07:39:33.486Z,97584.59
2022-08-21T07:40:36.642Z,97591.66
2022-08-21T07:41:39.541Z,97598.53
2022-08-21T07:42:44.838Z,97596.09
2022-08-21T07:43:48.203Z,97590.78
2022-08-21T07:44:51.304Z,97592.69
2022-08-21T07:46:02.303Z,97586.31
2022-08-21T07:47:05.354Z,97586.38
2022-08-21T07:48:08.293Z,97588.12
2022-08-21T07:49:11.192Z,97583.16
2022-08-21T07:50:19.295Z,97581.75
2022-08-21T07:51:26.673Z,97576.50
2022-08-21T07:52:31.879Z,97577.84
2022-08-21T07:53:36.974Z,97580.94
2022-08-21T07:54:40.275Z,97582.69
2022-08-21T07:55:44.073Z,97582.69
2022-08-21T07:56:47.019Z,97580.38
2022-08-21T07:57:50.439Z,97579.72
2022-08-21T07:58:53.720Z,97579.00
2022-08-21T07:59:56.770Z,97575.59
2022-08-21T08:01:00.187Z,97574.56
2022-08-21T08:02:03.143Z,97575.75
2022-08-21T08:03:07.280Z,97574.97
2022-08-21T08:04:10.222Z,97568.41
2022-08-21T08:05:14.234Z,97574.16
2022-08-21T08:06:20.778Z,97570.59
2022-08-21T08:07:23.697Z,97574.75
2022-08-21T08:08:27.227Z,97577.84
2022-08-21T08:09:30.144Z,97574.81
2022-08-21T08:10:33.381Z,97565.31
2022-08-21T08:11:40.311Z,97563.84
2022-08-21T08:12:44.463Z,97567.41
2022-08-21T08:13:53.714Z,97566.84
2022-08-21T08:15:01.223Z,97574.00
2022-08-21T08:16:04.323Z,97568.72
2022-08-21T08:17:07.172Z,97562.25
2022-08-21T08:18:10.150Z,97566.00
2022-08-21T08:19:13.019Z,97569.81
2022-08-21T08:20:17.640Z,97563.94
2022-08-21T08:21:22.154Z,97567.63
2022-08-21T08:22:25.424Z,97564.47
2022-08-21T08:23:29.430Z,97563.78
2022-08-21T08:24:32.359Z,97563.91
2022-08-21T08:25:36.508Z,97565.12
2022-08-21T08:26:40.535Z,97557.84
2022-08-21T08:27:43.548Z,97557.13
2022-08-21T08:28:48.912Z,97557.16
2022-08-21T08:29:52.615Z,97559.91
2022-08-21T08:30:56.542Z,97554.03
2022-08-21T08:32:03.463Z,97554.50
2022-08-21T08:33:06.445Z,97557.28
2022-08-21T08:34:09.337Z,97554.59
2022-08-21T08:35:13.154Z,97552.50
2022-08-21T08:36:19.790Z,97553.38
2022-08-21T08:37:22.995Z,97559.59
2022-08-21T08:38:32.535Z,97554.37
2022-08-21T08:39:35.823Z,97558.19
2022-08-21T08:41:05.503Z,97550.94
2022-08-21T08:42:33.887Z,97558.97
2022-08-21T08:43:37.043Z,97558.25
2022-08-21T08:44:40.319Z,97554.78
2022-08-21T08:45:48.047Z,97556.94
2022-08-21T08:46:53.676Z,97559.91
2022-08-21T08:48:04.934Z,97558.00
2022-08-21T08:49:12.843Z,97559.69
2022-08-21T08:50:22.776Z,97558.31
2022-08-21T08:51:34.401Z,97564.56
2022-08-21T08:52:44.157Z,97561.75
2022-08-21T08:53:54.846Z,97559.78
2022-08-21T08:55:05.543Z,97562.53
2022-08-21T08:56:08.954Z,97565.44
2022-08-21T08:57:18.289Z,97566.34
2022-08-21T08:58:34.111Z,97569.47
2022-08-21T08:59:44.216Z,97568.81
2022-08-21T09:00:50.455Z,97566.97
2022-08-21T09:01:53.555Z,97567.28
2022-08-21T09:02:59.938Z,97567.34
2022-08-21T09:04:03.156Z,97560.94
2022-08-21T09:05:07.394Z,97568.50
2022-08-21T09:06:38.689Z,97568.69
2022-08-21T09:07:47.535Z,97567.97
2022-08-21T09:09:10.315Z,97563.38
2022-08-21T09:10:31.757Z,97565.78
2022-08-21T09:11:41.644Z,97569.22
2022-08-21T09:12:58.350Z,97564.41
2022-08-21T09:14:28.470Z,97571.00
2022-08-21T09:15:55.467Z,97564.56
2022-08-21T09:17:19.995Z,97565.94
2022-08-21T09:18:49.832Z,97565.72
2022-08-21T09:20:20.168Z,97560.06
2022-08-21T09:21:48.746Z,97558.34
2022-08-21T09:23:19.324Z,97556.63
2022-08-21T09:24:41.753Z,97567.81
2022-08-21T09:26:11.236Z,97565.66
2022-08-21T09:27:23.534Z,97557.59
2022-08-21T09:28:28.026Z,97560.44
2022-08-21T09:29:35.242Z,97559.72
2022-08-21T09:30:42.078Z,97559.84
2022-08-21T09:31:45.023Z,97556.91
2022-08-21T09:32:47.900Z,97557.28
2022-08-21T09:33:52.144Z,97556.78
2022-08-21T09:35:06.082Z,97558.38
2022-08-21T09:36:09.282Z,97554.25
2022-08-21T09:37:23.479Z,97558.47
2022-08-21T09:38:33.249Z,97557.00
2022-08-21T09:39:43.535Z,97555.47
2022-08-21T09:40:58.767Z,97553.38
2022-08-21T09:42:06.369Z,97556.13
2022-08-21T09:43:15.220Z,97552.66
2022-08-21T09:44:33.088Z,97550.50
2022-08-21T09:45:36.200Z,97550.84
2022-08-21T09:46:39.306Z,97557.38
2022-08-21T09:47:44.436Z,97551.16
2022-08-21T09:48:54.990Z,97553.25
2022-08-21T09:50:10.105Z,97557.28
2022-08-21T09:51:18.132Z,97547.66
2022-08-21T09:52:23.757Z,97550.78
2022-08-21T09:53:35.719Z,97546.16
2022-08-21T09:54:41.745Z,97551.84
2022-08-21T09:56:19.242Z,97539.31
2022-08-21T09:57:46.344Z,97550.38
2022-08-21T09:58:51.880Z,97554.00
2022-08-21T09:59:55.812Z,97556.00
2022-08-21T10:01:03.637Z,97564.75
2022-08-21T10:02:30.550Z,97554.25
2022-08-21T10:03:41.319Z,97555.66
2022-08-21T10:05:05.733Z,97556.56
2022-08-21T10:06:11.994Z,97549.69
2022-08-21T10:07:16.206Z,97561.91
2022-08-21T10:08:21.642Z,97557.97
2022-08-21T10:09:24.620Z,97552.28
2022-08-21T10:10:32.281Z,97554.81
2022-08-21T10:11:35.795Z,97561.13
2022-08-21T10:12:49.414Z,97560.22
2022-08-21T10:14:23.130Z,97558.44
2022-08-21T10:15:50.996Z,97560.78
2022-08-21T10:17:06.060Z,97560.44
2022-08-21T10:18:21.528Z,97552.66
2022-08-21T10:19:45.432Z,97558.56
2022-08-21T10:21:01.480Z,97555.59
2022-08-21T10:22:31.016Z,97558.91
2022-08-21T10:24:02.451Z,97565.09
2022-08-21T10:25:12.292Z,97561.72
2022-08-21T10:26:34.268Z,97562.25
2022-08-21T10:28:11.347Z,97552.78
2022-08-21T10:29:45.362Z,97562.56
2022-08-21T10:30:59.406Z,97558.56
2022-08-21T10:32:26.281Z,97561.19
2022-08-21T10:33:39.903Z,97560.72
2022-08-21T10:35:00.994Z,97563.56
2022-08-21T10:36:07.242Z,97563.88
2022-08-21T10:37:58.220Z,97562.81
2022-08-21T10:39:26.605Z,97567.66
2022-08-21T10:40:51.238Z,97571.28
2022-08-21T10:42:28.352Z,97568.19
2022-08-21T10:44:10.048Z,97563.28
2022-08-21T10:45:32.346Z,97562.06
2022-08-21T10:47:13.783Z,97566.69
2022-08-21T10:48:51.070Z,97558.44
2022-08-21T10:50:04.923Z,97564.94
2022-08-21T10:51:37.944Z,97567.34
2022-08-21T10:52:58.649Z,97561.03
2022-08-21T10:54:23.364Z,97561.75
2022-08-21T10:55:41.739Z,97566.88
2022-08-21T10:56:48.100Z,97571.69
2022-08-21T10:57:58.543Z,97566.50
2022-08-21T10:59:21.970Z,97562.22
2022-08-21T11:00:31.407Z,97562.31
2022-08-21T11:02:07.958Z,97565.09
2022-08-21T11:03:47.277Z,97554.69
2022-08-21T11:04:59.012Z,97554.97
2022-08-21T11:06:32.453Z,97550.00
2022-08-21T11:07:38.979Z,97552.94
2022-08-21T11:08:47.632Z,97558.75
2022-08-21T11:11:08.690Z,97561.44
2022-08-21T11:12:37.337Z,97553.53
2022-08-21T11:13:46.353Z,97546.63
2022-08-21T11:15:29.225Z,97552.72
2022-08-21T11:16:37.467Z,97557.75
2022-08-21T11:17:52.137Z,97547.22
2022-08-21T11:19:02.150Z,97554.87
2022-08-21T11:20:15.145Z,97562.44
2022-08-21T11:21:31.225Z,97549.22
2022-08-21T11:23:03.798Z,97547.75
2022-08-21T11:24:22.830Z,97540.06
2022-08-21T11:25:37.287Z,97541.09
2022-08-21T11:27:02.474Z,97550.78
2022-08-21T11:28:15.233Z,97545.13
2022-08-21T11:29:51.115Z,97551.12
2022-08-21T11:30:56.676Z,97548.78
2022-08-21T11:32:12.770Z,97540.13
2022-08-21T11:33:31.310Z,97544.41
2022-08-21T11:35:02.528Z,97548.31
2022-08-21T11:36:26.834Z,97544.53
2022-08-21T11:37:48.003Z,97540.59
2022-08-21T11:39:14.227Z,97549.63
2022-08-21T11:40:51.957Z,97547.69
2022-08-21T11:42:12.423Z,97543.94
2022-08-21T11:43:40.366Z,97548.84
2022-08-21T11:44:43.193Z,97546.09
2022-08-21T11:45:53.325Z,97548.28
2022-08-21T11:47:27.015Z,97539.37
2022-08-21T11:48:40.376Z,97542.13
2022-08-21T11:49:46.083Z,97542.69
2022-08-21T11:50:50.709Z,97546.31
2022-08-21T11:52:13.043Z,97540.66
2022-08-21T11:53:28.413Z,97532.41
2022-08-21T11:54:45.961Z,97533.88
2022-08-21T11:55:58.308Z,97531.75
2022-08-21T11:57:26.294Z,97532.75
2022-08-21T11:58:38.131Z,97532.44
2022-08-21T11:59:48.466Z,97532.06
2022-08-21T12:00:57.540Z,97525.75
2022-08-21T12:02:01.332Z,97525.16
2022-08-21T12:03:18.377Z,97532.13
2022-08-21T12:04:32.201Z,97529.28
2022-08-21T12:05:45.519Z,97533.41
2022-08-21T12:06:50.651Z,97532.06
2022-08-21T12:08:13.734Z,97526.53
2022-08-21T12:09:25.985Z,97525.50
2022-08-21T12:10:35.182Z,97522.63
2022-08-21T12:11:51.493Z,97527.88
2022-08-21T12:13:06.407Z,97530.44
2022-08-21T12:14:09.311Z,97525.88
2022-08-21T12:15:21.636Z,97520.41
2022-08-21T12:16:39.694Z,97528.75
2022-08-21T12:17:54.603Z,97522.09
2022-08-21T12:19:11.451Z,97523.75
2022-08-21T12:20:47.434Z,97529.28
2022-08-21T12:22:02.652Z,97519.78
2022-08-21T12:23:13.221Z,97515.09
2022-08-21T12:24:16.116Z,97522.72
2022-08-21T12:25:22.050Z,97519.81
2022-08-21T12:26:39.548Z,97522.69
2022-08-21T12:27:48.903Z,97520.59
2022-08-21T12:28:52.473Z,97513.00
2022-08-21T12:30:20.999Z,97524.31
2022-08-21T12:31:29.360Z,97514.53
2022-08-21T12:32:48.246Z,97516.44
2022-08-21T12:33:58.238Z,97520.81
2022-08-21T12:35:07.066Z,97520.62
2022-08-21T12:36:25.459Z,97513.56
2022-08-21T12:37:45.540Z,97513.66
2022-08-21T12:39:03.475Z,97522.97
2022-08-21T12:40:22.968Z,97514.34
2022-08-21T12:41:48.399Z,97523.72
2022-08-21T12:42:58.807Z,97520.59
2022-08-21T12:44:12.031Z,97516.91
2022-08-21T12:45:26.225Z,97524.09
2022-08-21T12:46:51.598Z,97512.56
2022-08-21T12:48:06.112Z,97510.41
2022-08-21T12:49:20.560Z,97511.97
2022-08-21T12:50:49.086Z,97517.56
2022-08-21T12:52:02.847Z,97514.03
2022-08-21T12:53:20.577Z,97504.72
2022-08-21T12:54:33.874Z,97510.16
2022-08-21T12:55:41.655Z,97507.97
2022-08-21T12:56:44.606Z,97502.69
2022-08-21T12:57:47.786Z,97503.38
2022-08-21T12:58:56.686Z,97508.37
2022-08-21T13:00:04.878Z,97507.53
2022-08-21T13:01:19.841Z,97500.81
2022-08-21T13:02:36.482Z,97498.09
2022-08-21T13:03:40.467Z,97510.22
2022-08-21T13:04:44.124Z,97499.66
2022-08-21T13:05:47.370Z,97501.63
2022-08-21T13:06:55.614Z,97497.59
2022-08-21T13:07:59.334Z,97500.47
2022-08-21T13:09:07.930Z,97502.00
2022-08-21T13:10:21.857Z,97494.34
2022-08-21T13:11:33.698Z,97495.28
2022-08-21T13:12:37.703Z,97489.00
2022-08-21T13:13:46.880Z,97491.91
2022-08-21T13:14:58.559Z,97489.75
2022-08-21T13:16:07.974Z,97482.25
2022-08-21T13:17:13.227Z,97483.41
2022-08-21T13:18:33.469Z,97484.09
2022-08-21T13:19:37.421Z,97480.25
2022-08-21T13:20:44.520Z,97477.94
2022-08-21T13:21:47.856Z,97477.16
2022-08-21T13:22:51.794Z,97477.94